Terminal Aerodrome Forecast
Issued by NWS Northern Indiana

Home | Current Version | Previous Version | Graphics & Text | Print | Product List | Glossary On
Versions: 1 2 3 4 5 6 7 8 9 10 11 12 13 14 15 16 17
000
FTUS43 KIWX 291736
TAFFWA
TAF
KFWA 291736Z 2918/3018 20007KT P6SM VCSH BKN070
      TEMPO 2921/3001 6SM -SHRA BKN040
     FM300400 16003KT 4SM BR VCSH BKN040
     FM301400 21006KT P6SM SCT035=

USA.gov is the U.S. government's official web portal to all federal, state and local government web resources and services.